Time;durP1;ratioP1;P1;durP2;ratioP2;P2;SDS_P1;SDS_P2;PMS_P1;PMS_P2;Temp;Humidity;BMP_temperature;BMP_pressure;BME280_temperature;BME280_humidity;BME280_pressure;Samples;Min_cycle;Max_cycle;Signal;HPM_P1;HPM_P2
2023/04/27 00:00:50;;;;;;;;;18.33;12.00;;;;;-146.39;100.00;62182.44;6280952;20;3562809;-55
2023/04/27 00:03:19;;;;;;;;;14.00;11.00;;;;;-146.39;100.00;62182.44;6336151;20;2814881;-55
2023/04/27 00:05:49;;;;;;;;;12.80;12.00;;;;;-146.39;100.00;62182.44;6335364;20;2806551;-56
2023/04/27 00:08:18;;;;;;;;;19.00;16.67;;;;;-146.39;100.00;62182.44;6283050;20;3543002;-56
2023/04/27 00:10:46;;;;;;;;;17.00;17.00;;;;;-146.39;100.00;62182.44;6314165;20;2819114;-54
2023/04/27 00:13:15;;;;;;;;;24.00;22.50;;;;;-146.39;100.00;62182.44;6282378;20;2835760;-57
2023/04/27 00:15:44;;;;;;;;;24.00;22.00;;;;;-146.39;100.00;62182.44;6279745;20;2848218;-54
2023/04/27 00:18:13;;;;;;;;;26.50;22.50;;;;;-146.39;100.00;62182.44;6281071;20;2850382;-56
2023/04/27 00:20:41;;;;;;;;;28.50;21.50;;;;;-146.39;100.00;62182.44;6279473;20;2500296;-58
2023/04/27 00:23:09;;;;;;;;;30.50;26.00;;;;;-146.39;100.00;62182.44;6279772;20;2500259;-56
2023/04/27 00:25:40;;;;;;;;;27.50;24.50;;;;;-146.39;100.00;62182.44;6275374;20;2500313;-54
2023/04/27 00:28:08;;;;;;;;;30.00;27.50;;;;;-146.39;100.00;62182.44;6279307;20;2500381;-55
2023/04/27 00:30:36;;;;;;;;;25.00;20.50;;;;;-146.39;100.00;62182.44;6278276;20;2500395;-56
2023/04/27 00:33:05;;;;;;;;;21.33;19.67;;;;;-146.39;100.00;62182.44;6279215;20;3567158;-56
2023/04/27 00:35:34;;;;;;;;;26.00;21.50;;;;;-146.39;100.00;62182.44;6280735;20;2850249;-56
2023/04/27 00:38:02;;;;;;;;;18.50;17.50;;;;;-146.39;100.00;62182.44;6282082;20;2823228;-57
2023/04/27 00:40:31;;;;;;;;;19.67;15.00;;;;;-146.39;100.00;62182.44;6282141;20;3556603;-56
2023/04/27 00:43:00;;;;;;;;;20.33;20.33;;;;;-146.39;100.00;62182.44;6313802;20;3567070;-57
2023/04/27 00:45:29;;;;;;;;;21.00;15.00;;;;;-146.39;100.00;62182.44;6312649;20;3545084;-56
2023/04/27 00:47:58;;;;;;;;;16.50;16.50;;;;;-146.39;100.00;62182.44;6318552;20;2816928;-55
2023/04/27 00:50:29;;;;;;;;;16.00;15.67;;;;;-146.39;100.00;62182.44;6281788;20;3549218;-56
2023/04/27 00:52:57;;;;;;;;;22.00;17.00;;;;;-146.39;100.00;62182.44;6315125;20;2825292;-56
2023/04/27 00:55:25;;;;;;;;;17.50;15.50;;;;;-146.39;100.00;62182.44;6284934;20;2809619;-56
2023/04/27 00:57:55;;;;;;;;;22.00;18.00;;;;;-146.39;100.00;62182.44;6283507;20;3559680;-54
2023/04/27 01:00:24;;;;;;;;;22.67;18.33;;;;;-146.39;100.00;62182.44;6284095;20;3563800;-58
2023/04/27 01:02:52;;;;;;;;;16.00;16.00;;;;;-146.39;100.00;62182.44;6317945;20;2812793;-57
2023/04/27 01:05:23;;;;;;;;;23.00;16.33;;;;;-146.39;100.00;62182.44;6282995;20;3564876;-54
2023/04/27 01:07:52;;;;;;;;;20.00;17.00;;;;;-146.39;100.00;62182.44;6316453;20;3557603;-58
2023/04/27 01:10:21;;;;;;;;;26.00;18.33;;;;;-146.39;100.00;62182.44;6313643;20;3570075;-57
2023/04/27 01:12:50;;;;;;;;;25.33;20.67;;;;;-146.39;100.00;62182.44;6316239;20;3578381;-57
2023/04/27 01:15:18;;;;;;;;;23.67;20.00;;;;;-146.39;100.00;62182.44;6280600;20;3569129;-57
2023/04/27 01:17:47;;;;;;;;;17.33;15.00;;;;;-146.39;100.00;62182.44;6283377;20;3530469;-56
2023/04/27 01:20:15;;;;;;;;;15.00;15.00;;;;;-146.39;100.00;62182.44;6315130;20;2809741;-59
2023/04/27 01:22:43;;;;;;;;;18.00;15.00;;;;;-146.39;100.00;62182.44;6286594;20;2813835;-56
2023/04/27 01:25:12;;;;;;;;;18.00;17.00;;;;;-146.39;100.00;62182.44;6283983;20;3550303;-57
2023/04/27 01:27:40;;;;;;;;;14.00;14.00;;;;;-146.39;100.00;62182.44;6315880;20;3539984;-56
2023/04/27 01:30:09;;;;;;;;;19.33;17.33;;;;;-146.39;100.00;62182.44;6314741;20;3552450;-54
2023/04/27 01:32:38;;;;;;;;;17.00;15.33;;;;;-146.39;100.00;62182.44;6315162;20;3544190;-55
2023/04/27 01:35:08;;;;;;;;;16.67;16.67;;;;;-146.39;100.00;62182.44;6314733;20;3540227;-55
2023/04/27 01:37:38;;;;;;;;;14.40;14.40;;;;;-146.39;100.00;62182.44;6338671;20;2803506;-56
2023/04/27 01:40:07;;;;;;;;;22.33;15.00;;;;;-146.39;100.00;62182.44;6286488;20;3544001;-58
2023/04/27 01:42:37;;;;;;;;;18.00;16.00;;;;;-146.39;100.00;62182.44;6312378;20;3548205;-51
2023/04/27 01:45:07;;;;;;;;;20.67;18.00;;;;;-146.39;100.00;62182.44;6316178;20;3552332;-56
2023/04/27 01:47:35;;;;;;;;;13.67;13.67;;;;;-146.39;100.00;62182.44;6314568;20;3520402;-56
2023/04/27 01:50:05;;;;;;;;;19.33;19.00;;;;;-146.39;100.00;62182.44;6313136;20;3557545;-59
2023/04/27 01:52:33;;;;;;;;;18.50;15.00;;;;;-146.39;100.00;62182.44;6284610;20;2807554;-59
2023/04/27 01:55:02;;;;;;;;;18.33;15.00;;;;;-146.39;100.00;62182.44;6281114;20;2800342;-57
2023/04/27 01:57:31;;;;;;;;;23.33;17.33;;;;;-146.39;100.00;62182.44;6312641;20;3565010;-53
2023/04/27 01:59:59;;;;;;;;;21.00;19.00;;;;;-146.39;100.00;62182.44;6316196;20;2822265;-56
2023/04/27 02:02:27;;;;;;;;;9.00;9.00;;;;;-146.39;100.00;62182.44;6283557;20;2752384;-57
2023/04/27 02:04:56;;;;;;;;;15.67;15.00;;;;;-146.39;100.00;62182.44;6284141;20;3552345;-57
2023/04/27 02:07:24;;;;;;;;;18.50;17.00;;;;;-146.39;100.00;62182.44;6314849;20;2820110;-56
2023/04/27 02:09:51;;;;;;;;;13.00;11.50;;;;;-146.39;100.00;62182.44;6283028;20;2780526;-57
2023/04/27 02:12:20;;;;;;;;;19.67;17.00;;;;;-146.39;100.00;62182.44;6280298;20;2822448;-57
2023/04/27 02:14:49;;;;;;;;;14.33;13.00;;;;;-146.39;100.00;62182.44;6311574;20;2800353;-58
2023/04/27 02:17:17;;;;;;;;;14.50;12.00;;;;;-146.39;100.00;62182.44;6310092;20;2791989;-55
2023/04/27 02:19:45;;;;;;;;;16.50;15.50;;;;;-146.39;100.00;62182.44;6281184;20;2804436;-55
2023/04/27 02:22:15;;;;;;;;;16.60;14.80;;;;;-146.39;100.00;62182.44;6302896;20;2810668;-54
2023/04/27 02:24:45;;;;;;;;;15.00;15.00;;;;;-146.39;100.00;62182.44;6304996;20;2816921;-56
2023/04/27 02:27:13;;;;;;;;;18.67;18.00;;;;;-146.39;100.00;62182.44;6283886;20;3556553;-55
2023/04/27 02:29:42;;;;;;;;;21.00;16.00;;;;;-146.39;100.00;62182.44;6315197;20;2811772;-56
2023/04/27 02:32:11;;;;;;;;;19.33;17.00;;;;;-146.39;100.00;62182.44;6282180;20;3561778;-57
2023/04/27 02:34:41;;;;;;;;;16.60;11.40;;;;;-146.39;100.00;62182.44;6337254;20;2793470;-55
2023/04/27 02:37:09;;;;;;;;;14.00;13.00;;;;;-146.39;100.00;62182.44;6284391;20;2799304;-57
2023/04/27 02:39:37;;;;;;;;;20.00;15.00;;;;;-146.39;100.00;62182.44;6282599;20;3546159;-55
2023/04/27 02:42:06;;;;;;;;;20.67;17.67;;;;;-146.39;100.00;62182.44;6314442;20;3549262;-56
2023/04/27 02:44:35;;;;;;;;;24.33;19.33;;;;;-146.39;100.00;62182.44;6313958;20;3560819;-57
2023/04/27 02:47:03;;;;;;;;;20.67;20.67;;;;;-146.39;100.00;62182.44;6280961;20;3570040;-55
2023/04/27 02:49:32;;;;;;;;;21.67;17.67;;;;;-146.39;100.00;62182.44;6315215;20;3547242;-57
2023/04/27 02:52:01;;;;;;;;;18.00;14.00;;;;;-146.39;100.00;62182.44;6289919;20;2693225;-54
2023/04/27 02:54:30;;;;;;;;;21.67;19.00;;;;;-146.39;100.00;62182.44;6314263;20;3566947;-55
2023/04/27 02:56:58;;;;;;;;;19.00;15.67;;;;;-146.39;100.00;62182.44;6311802;20;3547114;-58
2023/04/27 02:59:27;;;;;;;;;20.33;16.00;;;;;-146.39;100.00;62182.44;6315113;20;3545120;-58
2023/04/27 03:01:55;;;;;;;;;18.00;14.00;;;;;-146.39;100.00;62182.44;6314000;20;2684622;-57
2023/04/27 03:04:24;;;;;;;;;15.67;14.33;;;;;-146.39;100.00;62182.44;6280646;20;3539866;-58
2023/04/27 03:06:52;;;;;;;;;21.00;15.00;;;;;-146.39;100.00;62182.44;6311862;20;2817015;-55
2023/04/27 03:09:20;;;;;;;;;18.00;14.00;;;;;-146.39;100.00;62182.44;6313257;20;2814857;-57
2023/04/27 03:11:48;;;;;;;;;15.00;15.00;;;;;-146.39;100.00;62182.44;6282537;20;2806636;-56
2023/04/27 03:14:17;;;;;;;;;20.00;18.33;;;;;-146.39;100.00;62182.44;6280519;20;3548186;-57
2023/04/27 03:16:45;;;;;;;;;18.67;15.00;;;;;-146.39;100.00;62182.44;6275233;20;2806623;-57
2023/04/27 03:19:13;;;;;;;;;15.00;15.00;;;;;-146.39;100.00;62182.44;6310900;20;2796142;-58
2023/04/27 03:21:43;;;;;;;;;17.00;16.67;;;;;-146.39;100.00;62182.44;6278289;20;3549295;-57
2023/04/27 03:24:10;;;;;;;;;17.00;15.50;;;;;-146.39;100.00;62182.44;6316080;20;2806669;-56
2023/04/27 03:26:39;;;;;;;;;12.67;12.67;;;;;-146.39;100.00;62182.44;6279210;20;2809646;-56
2023/04/27 03:29:09;;;;;;;;;15.00;15.00;;;;;-146.39;100.00;62182.44;6335765;20;2798851;-55
2023/04/27 03:31:37;;;;;;;;;20.33;13.33;;;;;-146.39;100.00;62182.44;6283531;20;2818067;-57
2023/04/27 03:34:05;;;;;;;;;20.50;18.50;;;;;-146.39;100.00;62182.44;6312203;20;2833598;-56
2023/04/27 03:36:34;;;;;;;;;19.67;17.00;;;;;-146.39;100.00;62182.44;6280803;20;2810708;-57
2023/04/27 03:39:03;;;;;;;;;17.33;17.33;;;;;-146.39;100.00;62182.44;6311029;20;3554427;-54
2023/04/27 03:41:31;;;;;;;;;15.00;15.00;;;;;-146.39;100.00;62182.44;6316026;20;2814891;-58
2023/04/27 03:43:59;;;;;;;;;15.00;15.00;;;;;-146.39;100.00;62182.44;6280195;20;2807590;-58
2023/04/27 03:46:28;;;;;;;;;16.33;16.33;;;;;-146.39;100.00;62182.44;6278464;20;3544044;-58
2023/04/27 03:48:57;;;;;;;;;18.33;15.00;;;;;-146.39;100.00;62182.44;6312419;20;3551287;-57
2023/04/27 03:51:25;;;;;;;;;24.67;17.00;;;;;-146.39;100.00;62182.44;6313434;20;3573124;-58
2023/04/27 03:53:54;;;;;;;;;21.00;17.00;;;;;-146.39;100.00;62182.44;6282184;20;3565343;-54
2023/04/27 03:56:23;;;;;;;;;19.00;16.67;;;;;-146.39;100.00;62182.44;6309302;20;3560693;-57
2023/04/27 03:58:52;;;;;;;;;16.00;15.00;;;;;-146.39;100.00;62182.44;6277772;20;3540938;-54
2023/04/27 04:01:20;;;;;;;;;17.50;15.50;;;;;-146.39;100.00;62182.44;6312011;20;2816031;-58
2023/04/27 04:03:49;;;;;;;;;14.00;14.00;;;;;-146.39;100.00;62182.44;6278800;20;2806626;-57
2023/04/27 04:06:17;;;;;;;;;17.50;16.00;;;;;-146.39;100.00;62182.44;6279638;20;2811851;-55
2023/04/27 04:08:46;;;;;;;;;24.33;19.33;;;;;-146.39;100.00;62182.44;6281827;20;3571841;-57
2023/04/27 04:11:16;;;;;;;;;64.00;46.33;;;;;-146.39;100.00;62182.44;6282655;20;2888840;-53
2023/04/27 04:13:46;;;;;;;;;72.33;56.00;;;;;-146.39;100.00;62182.44;6311806;20;3624325;-55
2023/04/27 04:16:15;;;;;;;;;56.67;43.67;;;;;-146.39;100.00;62182.44;6309182;20;3625227;-55
2023/04/27 04:18:45;;;;;;;;;46.00;36.00;;;;;-146.39;100.00;62182.44;6311868;20;3619110;-60
2023/04/27 04:21:15;;;;;;;;;40.67;31.67;;;;;-146.39;100.00;62182.44;6307638;20;2870230;-56
2023/04/27 04:23:44;;;;;;;;;34.33;28.67;;;;;-146.39;100.00;62182.44;6311872;20;2864947;-54
2023/04/27 04:26:14;;;;;;;;;21.00;19.50;;;;;-146.39;100.00;62182.44;6306700;20;2500289;-58
2023/04/27 04:28:43;;;;;;;;;18.50;18.50;;;;;-146.39;100.00;62182.44;6283874;20;2824276;-55
2023/04/27 04:31:13;;;;;;;;;14.00;10.33;;;;;-146.39;100.00;62182.44;6277385;20;2789008;-52
2023/04/27 04:33:43;;;;;;;;;10.00;10.00;;;;;-146.39;100.00;62182.44;6336484;20;2776437;-56
2023/04/27 04:36:12;;;;;;;;;11.00;11.00;;;;;-146.39;100.00;62182.44;6278551;20;3533628;-56
2023/04/27 04:38:40;;;;;;;;;17.50;13.00;;;;;-146.39;100.00;62182.44;6313595;20;2804429;-57
2023/04/27 04:41:09;;;;;;;;;13.50;11.00;;;;;-146.39;100.00;62182.44;6285567;20;2794047;-54
2023/04/27 04:43:37;;;;;;;;;12.00;11.00;;;;;-146.39;100.00;62182.44;6280889;20;2786815;-53
2023/04/27 04:46:07;;;;;;;;;13.80;13.20;;;;;-146.39;100.00;62182.44;6333860;20;2789933;-54
2023/04/27 04:48:35;;;;;;;;;14.00;11.50;;;;;-146.39;100.00;62182.44;6285729;20;2789884;-56
2023/04/27 04:51:06;;;;;;;;;12.60;11.60;;;;;-146.39;100.00;62182.44;6301438;20;2794113;-55
2023/04/27 04:53:34;;;;;;;;;16.67;16.67;;;;;-146.39;100.00;62182.44;6279021;20;2814996;-54
2023/04/27 04:56:13;;;;;;;;;19.00;18.50;;;;;-146.39;100.00;62182.44;6309153;20;2830533;-55
2023/04/27 04:58:42;;;;;;;;;23.33;16.67;;;;;-146.39;100.00;62182.44;6277486;20;3559670;-56
2023/04/27 05:01:11;;;;;;;;;18.33;18.33;;;;;-146.39;100.00;62182.44;6278674;20;3558582;-55
2023/04/27 05:03:40;;;;;;;;;17.00;16.00;;;;;-146.39;100.00;62182.44;6310916;20;3556516;-55
2023/04/27 05:06:08;;;;;;;;;22.00;18.67;;;;;-146.39;100.00;62182.44;6277676;20;3567974;-57
2023/04/27 05:08:36;;;;;;;;;18.00;16.00;;;;;-146.39;100.00;62182.44;6313003;20;2814857;-57
2023/04/27 05:11:04;;;;;;;;;17.50;16.00;;;;;-146.39;100.00;62182.44;6279889;20;2825254;-55
2023/04/27 05:13:34;;;;;;;;;15.33;14.67;;;;;-146.39;100.00;62182.44;6278970;20;3534828;-58
2023/04/27 05:16:07;;;;;;;;;16.00;14.67;;;;;-146.39;100.00;62182.44;6307070;20;3543125;-55
2023/04/27 05:18:36;;;;;;;;;16.33;14.67;;;;;-146.39;100.00;62182.44;6310676;20;2790065;-55
2023/04/27 05:21:04;;;;;;;;;17.00;13.00;;;;;-146.39;100.00;62182.44;6314132;20;2812826;-56
2023/04/27 05:23:32;;;;;;;;;16.00;13.67;;;;;-146.39;100.00;62182.44;6282045;20;3536813;-57
2023/04/27 05:26:00;;;;;;;;;9.50;9.00;;;;;-146.39;100.00;62182.44;6309798;20;2770308;-56
2023/04/27 05:28:29;;;;;;;;;13.67;10.00;;;;;-146.39;100.00;62182.44;6281639;20;2796217;-55
2023/04/27 05:30:57;;;;;;;;;18.50;18.00;;;;;-146.39;100.00;62182.44;6317599;20;2828430;-54
2023/04/27 05:33:25;;;;;;;;;16.00;16.00;;;;;-146.39;100.00;62182.44;6286699;20;3555430;-55
2023/04/27 05:35:54;;;;;;;;;13.00;13.00;;;;;-146.39;100.00;62182.44;6313192;20;3546228;-57
2023/04/27 05:38:23;;;;;;;;;18.00;15.67;;;;;-146.39;100.00;62182.44;6316017;20;3548255;-55
2023/04/27 05:40:56;;;;;;;;;13.67;13.67;;;;;-146.39;100.00;62182.44;6281509;20;3524298;-54
2023/04/27 05:43:25;;;;;;;;;9.00;9.00;;;;;-146.39;100.00;62182.44;6318753;20;2750263;-54
2023/04/27 05:45:53;;;;;;;;;12.00;12.00;;;;;-146.39;100.00;62182.44;6286816;20;2789908;-55
2023/04/27 05:48:21;;;;;;;;;8.00;8.00;;;;;-146.39;100.00;62182.44;6288895;20;2746192;-57
2023/04/27 05:50:49;;;;;;;;;11.00;9.50;;;;;-146.39;100.00;62182.44;6288597;20;2779443;-52
2023/04/27 05:53:17;;;;;;;;;11.50;8.50;;;;;-146.39;100.00;62182.44;6281059;20;2766022;-54
2023/04/27 05:55:45;;;;;;;;;15.00;10.00;;;;;-146.39;100.00;62182.44;6284806;20;2683585;-55
2023/04/27 05:58:12;;;;;;;;;15.00;15.00;;;;;-146.39;100.00;62182.44;6285163;20;2798246;-55
2023/04/27 06:00:41;;;;;;;;;16.33;13.33;;;;;-146.39;100.00;62182.44;6284457;20;2812895;-56
2023/04/27 06:03:10;;;;;;;;;12.33;10.67;;;;;-146.39;100.00;62182.44;6314751;20;2791952;-53
2023/04/27 06:05:39;;;;;;;;;16.00;14.33;;;;;-146.39;100.00;62182.44;6314187;20;3533738;-54
2023/04/27 06:08:06;;;;;;;;;12.50;11.00;;;;;-146.39;100.00;62182.44;6318789;20;2794159;-53
2023/04/27 06:10:39;;;;;;;;;13.80;11.40;;;;;-146.39;100.00;62182.44;6311125;20;2794148;-52
2023/04/27 06:13:07;;;;;;;;;14.00;13.00;;;;;-146.39;100.00;62182.44;6286345;20;2806632;-53
2023/04/27 06:15:35;;;;;;;;;12.00;12.00;;;;;-146.39;100.00;62182.44;6289522;20;2785844;-55
2023/04/27 06:18:05;;;;;;;;;10.40;10.40;;;;;-146.39;100.00;62182.44;6309441;20;2803398;-52
2023/04/27 06:20:35;;;;;;;;;10.20;10.20;;;;;-146.39;100.00;62182.44;6310299;20;2790882;-54
2023/04/27 06:23:04;;;;;;;;;10.00;9.40;;;;;-146.39;100.00;62182.44;6312392;20;2773168;-54
2023/04/27 06:25:33;;;;;;;;;10.00;10.00;;;;;-146.39;100.00;62182.44;6284020;20;2790025;-55
2023/04/27 06:28:02;;;;;;;;;13.00;12.00;;;;;-146.39;100.00;62182.44;6287440;20;3530499;-56
2023/04/27 06:30:31;;;;;;;;;9.00;9.00;;;;;-146.39;100.00;62182.44;6315798;20;2761743;-57
2023/04/27 06:33:00;;;;;;;;;14.60;11.00;;;;;-146.39;100.00;62182.44;6339422;20;2795166;-55
2023/04/27 06:35:28;;;;;;;;;10.00;10.00;;;;;-146.39;100.00;62182.44;6283266;20;2796101;-55
2023/04/27 06:37:57;;;;;;;;;8.00;8.00;;;;;-146.39;100.00;62182.44;6288724;20;2748221;-56
2023/04/27 06:40:26;;;;;;;;;7.00;7.00;;;;;-146.39;100.00;62182.44;6303534;20;1806683;-54
2023/04/27 06:42:56;;;;;;;;;7.80;7.40;;;;;-146.39;100.00;62182.44;6344982;20;2748261;-53
2023/04/27 06:45:24;;;;;;;;;9.00;8.00;;;;;-146.39;100.00;62182.44;6318868;20;2748241;-55
2023/04/27 06:47:53;;;;;;;;;8.20;6.00;;;;;-146.39;100.00;62182.44;6313342;20;2738846;-57
2023/04/27 06:50:21;;;;;;;;;9.50;7.50;;;;;-146.39;100.00;62182.44;6316839;20;2752398;-56
2023/04/27 06:52:49;;;;;;;;;7.00;5.00;;;;;-146.39;100.00;62182.44;6297057;20;2610815;-55
2023/04/27 06:55:17;;;;;;;;;4.50;4.00;;;;;-146.39;100.00;62182.44;6285874;20;2740890;-61
2023/04/27 06:57:45;;;;;;;;;11.00;3.50;;;;;-146.39;100.00;62182.44;6285870;20;2785718;-60
2023/04/27 07:00:13;;;;;;;;;4.00;4.00;;;;;-146.39;100.00;62182.44;6289267;20;2750350;-60
2023/04/27 07:02:41;;;;;;;;;3.00;3.00;;;;;-146.39;100.00;62182.44;6289855;20;2744261;-57
2023/04/27 07:05:12;;;;;;;;;4.40;4.00;;;;;-146.39;100.00;62182.44;6313782;20;2756584;-56
2023/04/27 07:07:41;;;;;;;;;4.00;4.00;;;;;-146.39;100.00;62182.44;6312856;20;2746157;-56
2023/04/27 07:10:10;;;;;;;;;5.00;4.00;;;;;-146.39;100.00;62182.44;6318682;20;2743031;-58
2023/04/27 07:12:38;;;;;;;;;3.50;3.50;;;;;-146.39;100.00;62182.44;6290698;20;2752384;-57
2023/04/27 07:15:07;;;;;;;;;5.00;4.00;;;;;-146.39;100.00;62182.44;6288694;20;2741961;-56
2023/04/27 07:17:35;;;;;;;;;2.00;2.00;;;;;-146.39;100.00;62182.44;6289950;20;2735779;-57
2023/04/27 07:20:05;;;;;;;;;6.00;4.00;;;;;-146.39;100.00;62182.44;6290658;20;2752440;-55
2023/04/27 07:22:33;;;;;;;;;5.00;3.00;;;;;-146.39;100.00;62182.44;6291783;20;2751406;-57
2023/04/27 07:25:01;;;;;;;;;6.00;4.00;;;;;-146.39;100.00;62182.44;6290438;20;2748446;-56
2023/04/27 07:27:30;;;;;;;;;4.50;4.50;;;;;-146.39;100.00;62182.44;6289819;20;2738854;-57
2023/04/27 07:29:58;;;;;;;;;5.00;5.00;;;;;-146.39;100.00;62182.44;6288722;20;2747148;-56
2023/04/27 07:32:26;;;;;;;;;5.50;5.50;;;;;-146.39;100.00;62182.44;6287421;20;2733712;-57
2023/04/27 07:34:57;;;;;;;;;4.00;4.00;;;;;-146.39;100.00;62182.44;6288594;20;2745095;-55
2023/04/27 07:37:27;;;;;;;;;3.80;3.60;;;;;-146.39;100.00;62182.44;6308609;20;2752379;-56
2023/04/27 07:39:55;;;;;;;;;4.00;4.00;;;;;-146.39;100.00;62182.44;6318281;20;2742991;-56
2023/04/27 07:42:23;;;;;;;;;4.00;4.00;;;;;-146.39;100.00;62182.44;6287166;20;2743161;-56
2023/04/27 07:44:52;;;;;;;;;5.50;4.00;;;;;-146.39;100.00;62182.44;6287820;20;2759699;-57
2023/04/27 07:47:20;;;;;;;;;6.50;4.00;;;;;-146.39;100.00;62182.44;6288658;20;2734767;-57
2023/04/27 07:49:52;;;;;;;;;5.57;4.71;;;;;-146.39;100.00;62182.44;6331801;20;1805272;-56
2023/04/27 07:52:19;;;;;;;;;2.00;2.00;;;;;-146.39;100.00;62182.44;6315285;20;2740859;-55
2023/04/27 07:54:47;;;;;;;;;4.00;4.00;;;;;-146.39;100.00;62182.44;6285873;20;2751407;-55
2023/04/27 07:57:15;;;;;;;;;7.00;5.00;;;;;-146.39;100.00;62182.44;6284996;20;2737788;-55
2023/04/27 07:59:44;;;;;;;;;0.75;0.75;;;;;-146.39;100.00;62182.44;6304243;20;1802412;-57
2023/04/27 08:02:12;;;;;;;;;6.00;4.50;;;;;-146.39;100.00;62182.44;6316689;20;2739922;-57
2023/04/27 08:04:48;;;;;;;;;6.00;5.50;;;;;-146.39;100.00;62182.44;6287176;20;2743208;-55
2023/04/27 08:07:17;;;;;;;;;7.00;7.00;;;;;-146.39;100.00;62182.44;6287266;20;2737878;-57
2023/04/27 08:09:46;;;;;;;;;6.50;6.50;;;;;-146.39;100.00;62182.44;6287666;20;2740920;-56
2023/04/27 08:12:13;;;;;;;;;4.50;4.50;;;;;-146.39;100.00;62182.44;6287662;20;2743029;-57
2023/04/27 08:14:41;;;;;;;;;6.50;6.00;;;;;-146.39;100.00;62182.44;6286276;20;2734755;-57
2023/04/27 08:17:10;;;;;;;;;8.00;5.00;;;;;-146.39;100.00;62182.44;6283395;20;2740867;-55
2023/04/27 08:19:38;;;;;;;;;6.00;6.00;;;;;-146.39;100.00;62182.44;6282228;20;2742365;-56
2023/04/27 08:22:10;;;;;;;;;7.43;6.57;;;;;-146.39;100.00;62182.44;6327330;20;1796081;-54
2023/04/27 08:24:38;;;;;;;;;6.00;5.00;;;;;-146.39;100.00;62182.44;6318161;20;2737790;-54
2023/04/27 08:27:06;;;;;;;;;7.50;5.00;;;;;-146.39;100.00;62182.44;6286810;20;2745205;-55
2023/04/27 08:29:34;;;;;;;;;8.50;6.00;;;;;-146.39;100.00;62182.44;6289616;20;2732638;-57
2023/04/27 08:32:04;;;;;;;;;8.00;6.00;;;;;-146.39;100.00;62182.44;6287816;20;2736910;-56
2023/04/27 08:34:32;;;;;;;;;12.50;10.00;;;;;-146.39;100.00;62182.44;6284636;20;2784687;-56
2023/04/27 08:37:03;;;;;;;;;11.00;7.67;;;;;-146.39;100.00;62182.44;6283455;20;2759575;-55
2023/04/27 08:39:31;;;;;;;;;14.00;13.00;;;;;-146.39;100.00;62182.44;6320127;20;2784674;-56
2023/04/27 08:42:00;;;;;;;;;11.20;8.00;;;;;-146.39;100.00;62182.44;6309097;20;2761719;-56
2023/04/27 08:44:29;;;;;;;;;7.00;7.00;;;;;-146.39;100.00;62182.44;6284592;20;2750303;-56
2023/04/27 08:46:56;;;;;;;;;13.00;10.00;;;;;-146.39;100.00;62182.44;6282997;20;2781520;-55
2023/04/27 08:49:25;;;;;;;;;10.00;10.00;;;;;-146.39;100.00;62182.44;6282580;20;2792152;-56
2023/04/27 08:51:52;;;;;;;;;13.00;9.00;;;;;-146.39;100.00;62182.44;6280233;20;2772218;-55
2023/04/27 08:54:21;;;;;;;;;9.50;7.00;;;;;-146.39;100.00;62182.44;6284241;20;2762725;-55
2023/04/27 08:56:49;;;;;;;;;10.00;10.00;;;;;-146.39;100.00;62182.44;6282601;20;2783614;-54
2023/04/27 08:59:17;;;;;;;;;9.00;8.50;;;;;-146.39;100.00;62182.44;6315528;20;2751445;-56
2023/04/27 09:01:47;;;;;;;;;12.00;9.00;;;;;-146.39;100.00;62182.44;6282469;20;2765913;-57
2023/04/27 09:04:19;;;;;;;;;8.50;8.50;;;;;-146.39;100.00;62182.44;6296657;20;2752366;-55
2023/04/27 09:06:49;;;;;;;;;9.00;9.00;;;;;-146.39;100.00;62182.44;6310799;20;2738832;-55
2023/04/27 09:09:24;;;;;;;;;7.00;7.00;;;;;-146.39;100.00;62182.44;6321374;20;2725426;-57
2023/04/27 09:11:52;;;;;;;;;10.00;7.00;;;;;-146.39;100.00;62182.44;6281664;20;2769604;-55
2023/04/27 09:14:23;;;;;;;;;12.00;9.50;;;;;-146.39;100.00;62182.44;6290665;20;2783583;-57
2023/04/27 09:16:58;;;;;;;;;8.50;6.50;;;;;-146.39;100.00;62182.44;6289226;20;2738832;-53
2023/04/27 09:19:29;;;;;;;;;6.00;6.00;;;;;-146.39;100.00;62182.44;6289664;20;2748194;-56
2023/04/27 09:22:12;;;;;;;;;8.00;8.00;;;;;-146.39;100.00;62182.44;6283998;20;2748190;-51
2023/04/27 09:24:51;;;;;;;;;10.00;8.00;;;;;-146.39;100.00;62182.44;6291258;20;2751286;-56
2023/04/27 09:27:22;;;;;;;;;10.20;9.20;;;;;-146.39;100.00;62182.44;6310650;20;2779443;-55
2023/04/27 09:29:50;;;;;;;;;7.00;7.00;;;;;-146.39;100.00;62182.44;6290859;20;2739901;-55
2023/04/27 09:32:19;;;;;;;;;8.00;8.00;;;;;-146.39;100.00;62182.44;6286853;20;2755613;-53
2023/04/27 09:34:48;;;;;;;;;10.00;7.50;;;;;-146.39;100.00;62182.44;6287178;20;2751323;-53
2023/04/27 09:37:19;;;;;;;;;9.00;9.00;;;;;-146.39;100.00;62182.44;6331064;20;1796182;-54
2023/04/27 09:39:49;;;;;;;;;9.60;8.20;;;;;-146.39;100.00;62182.44;6342447;20;2760688;-57
2023/04/27 09:42:18;;;;;;;;;7.50;6.50;;;;;-146.39;100.00;62182.44;6319112;20;2734685;-54
2023/04/27 09:44:46;;;;;;;;;8.50;8.50;;;;;-146.39;100.00;62182.44;6288367;20;2747186;-57
2023/04/27 09:47:14;;;;;;;;;5.00;5.00;;;;;-146.39;100.00;62182.44;6289153;20;2737853;-58
2023/04/27 09:49:44;;;;;;;;;6.80;6.80;;;;;-146.39;100.00;62182.44;6312160;20;2744044;-57
2023/04/27 09:52:13;;;;;;;;;7.00;7.00;;;;;-146.39;100.00;62182.44;6342601;20;2733668;-57
2023/04/27 09:54:42;;;;;;;;;5.00;5.00;;;;;-146.39;100.00;62182.44;6315907;20;2750277;-59
2023/04/27 09:57:44;;;;;;;;;8.00;7.00;;;;;-146.39;100.00;62182.44;6289363;20;2748186;-58
2023/04/27 10:00:54;;;;;;;;;6.00;4.50;;;;;-146.39;100.00;62182.44;6287700;20;2746164;-56
2023/04/27 10:03:28;;;;;;;;;4.50;4.50;;;;;-146.39;100.00;62182.44;6287753;20;2748238;-57
2023/04/27 10:06:48;;;;;;;;;8.50;7.00;;;;;-146.39;100.00;62182.44;6286727;20;2739906;-59
2023/04/27 10:09:22;;;;;;;;;5.00;5.00;;;;;-146.39;100.00;62182.44;6282897;20;2745154;-57
2023/04/27 10:11:52;;;;;;;;;6.00;5.00;;;;;-146.39;100.00;62182.44;6287779;20;2743976;-58
2023/04/27 10:14:23;;;;;;;;;7.00;7.00;;;;;-146.39;100.00;62182.44;6311964;20;2730492;-58
2023/04/27 10:16:57;;;;;;;;;4.00;4.00;;;;;-146.39;100.00;62182.44;6316827;20;2754536;-60
2023/04/27 10:19:25;;;;;;;;;9.00;5.00;;;;;-146.39;100.00;62182.44;6289061;20;2742992;-59
2023/04/27 10:22:02;;;;;;;;;7.00;5.00;;;;;-146.39;100.00;62182.44;6294539;20;2728536;-59
2023/04/27 10:24:39;;;;;;;;;7.00;7.00;;;;;-146.39;100.00;62182.44;6288024;20;2742067;-59
2023/04/27 10:27:18;;;;;;;;;5.00;5.00;;;;;-146.39;100.00;62182.44;6312304;20;2748258;-57
2023/04/27 10:29:48;;;;;;;;;4.00;4.00;;;;;-146.39;100.00;62182.44;6317069;20;2743090;-59
2023/04/27 10:32:24;;;;;;;;;7.00;6.00;;;;;-146.39;100.00;62182.44;6286570;20;2740089;-59
2023/04/27 10:35:07;;;;;;;;;7.00;6.00;;;;;-146.39;100.00;62182.44;6284056;20;2735846;-58
2023/04/27 10:37:43;;;;;;;;;7.00;4.50;;;;;-146.39;100.00;62182.44;6287778;20;2748316;-59
2023/04/27 10:40:13;;;;;;;;;4.50;4.50;;;;;-146.39;100.00;62182.44;6290650;20;2734789;-59
2023/04/27 10:42:43;;;;;;;;;5.00;5.00;;;;;-146.39;100.00;62182.44;6288273;20;2748293;-55
2023/04/27 10:45:12;;;;;;;;;5.00;5.00;;;;;-146.39;100.00;62182.44;6291408;20;2730489;-59
2023/04/27 10:47:44;;;;;;;;;5.00;3.50;;;;;-146.39;100.00;62182.44;6288831;20;2748229;-59
2023/04/27 10:50:14;;;;;;;;;4.00;4.00;;;;;-146.39;100.00;62182.44;6290213;20;2748207;-58
2023/04/27 10:52:45;;;;;;;;;5.00;5.00;;;;;-146.39;100.00;62182.44;6288060;20;2748198;-60
2023/04/27 10:55:21;;;;;;;;;6.00;6.00;;;;;-146.39;100.00;62182.44;6290513;20;2737894;-58